This is the latest recevied weather packets stored in our database for station/object CX5ACA-13. If no packets are shown the sender has not sent any weather packets the latest 10 day(s).
| Time | Temp. | Humidity | Pressure | Rain* | Wind** | Luminosity | Snow |
|---|---|---|---|---|---|---|---|
| 1777219437 | 18.89° C | 69% | 1007.2 hPa | 0 mm | - | 180 W/m² | - |
| 1777219132 | 18.33° C | 71% | 1007.5 hPa | 0 mm | - | 270 W/m² | - |
| 1777218829 | 18.89° C | 69% | 1007.4 hPa | 0 mm | - | 195 W/m² | - |
| 1777218525 | 17.78° C | 72% | 1007.7 hPa | 0 mm | - | 481 W/m² | - |
| 1777218225 | 18.33° C | 72% | 1007.6 hPa | 0 mm | - | 159 W/m² | - |
| 1777217922 | 18.33° C | 70% | 1007.8 hPa | 0 mm | - | 227 W/m² | - |
| 1777217617 | 18.33° C | 69% | 1007.8 hPa | 0 mm | - | 23 W/m² | - |
| 1777217313 | 18.33° C | 67% | 1007.5 hPa | 0 mm | - | 40 W/m² | - |
| 1777217009 | 18.89° C | 65% | 1007.3 hPa | 0 mm | - | 61 W/m² | - |
| 1777216707 | 18.89° C | 68% | 1007 hPa | 0 mm | - | 60 W/m² | - |
| 1777216402 | 19.44° C | 68% | 1007.4 hPa | 0 mm | - | 89 W/m² | - |
| 1777216101 | 19.44° C | 68% | 1007.4 hPa | 0 mm | - | 131 W/m² | - |
| 1777215797 | 20° C | 67% | 1007.1 hPa | 0 mm | - | 175 W/m² | - |
| 1777215493 | 20° C | 67% | 1007.5 hPa | 0 mm | - | 591 W/m² | - |
| 1777215190 | 20° C | 68% | 1007.7 hPa | 0 mm | - | 195 W/m² | - |
| 1777214884 | 20.56° C | 66% | 1007.6 hPa | 0 mm | - | 134 W/m² | - |
| 1777214583 | 21.11° C | 62% | 1007.7 hPa | 0 mm | - | 198 W/m² | - |
| 1777214279 | 21.67° C | 61% | 1007.8 hPa | 0 mm | - | 612 W/m² | - |
| 1777213977 | 21.11° C | 59% | 1007.5 hPa | 0 mm | - | 457 W/m² | - |
| 1777213673 | 21.11° C | 59% | 1007.7 hPa | 0 mm | - | 510 W/m² | - |
| 1777213369 | 21.67° C | 58% | 1007.7 hPa | 0 mm | - | 514 W/m² | - |
| 1777213067 | 21.67° C | 57% | 1007.9 hPa | 0 mm | - | 552 W/m² | - |
| 1777212764 | 21.67° C | 56% | 1007.8 hPa | 0 mm | - | 512 W/m² | - |
| 1777212459 | 22.22° C | 57% | 1008 hPa | 0 mm | - | 353 W/m² | - |
| 1777212153 | 21.67° C | 59% | 1007.8 hPa | 0 mm | - | 477 W/m² | - |
* Rain latest hour (hover to see other rain measurements)
** Current wind speed in m/s (hover to see current wind gust speed)